NKS983 KFLL-KMYR
Flight info
| Callsign | NKS983 |
|---|---|
| Flight time | 1h 19m |
| Altitude | 35000 |
| Route | AGERS1 DUCEN Q87 JROSS |
| Aircraft | A321/M-SDE3FGHIRWY/LB1 |
Departure
| Time | 2026-05-04 01:32 |
|---|---|
| Airport | Fort Lauderdale Hollywood International Airport (KFLL) |
Arrival
| Time | 2026-05-04 02:51 |
|---|---|
| Airport | Myrtle Beach International Airport (KMYR) |
| Time | Latitude | Longitude | Altitude | Speed | Heading |
|---|---|---|---|---|---|
| 2026-05-04 01:20 | 26.06818 | -80.14553 | 17 ft | 0 kts | 268° |
| 2026-05-04 01:23 | 26.06817 | -80.14570 | 16 ft | 0 kts | 267° |
| 2026-05-04 01:24 | 26.06807 | -80.14583 | 16 ft | 6 kts | 220° |
| 2026-05-04 01:24 | 26.06776 | -80.14619 | 16 ft | 7 kts | 247° |
| 2026-05-04 01:24 | 26.06767 | -80.14675 | 16 ft | 8 kts | 267° |
| 2026-05-04 01:24 | 26.06765 | -80.14742 | 16 ft | 9 kts | 269° |
| 2026-05-04 01:25 | 26.06764 | -80.14818 | 16 ft | 10 kts | 270° |
| 2026-05-04 01:25 | 26.06754 | -80.14900 | 18 ft | 11 kts | 234° |
| 2026-05-04 01:25 | 26.06700 | -80.14955 | 16 ft | 11 kts | 247° |
| 2026-05-04 01:25 | 26.06694 | -80.15039 | 16 ft | 11 kts | 269° |
| 2026-05-04 01:26 | 26.06693 | -80.15132 | 16 ft | 12 kts | 269° |
| 2026-05-04 01:26 | 26.06693 | -80.15232 | 16 ft | 13 kts | 270° |
| 2026-05-04 01:26 | 26.06692 | -80.15339 | 16 ft | 14 kts | 269° |
| 2026-05-04 01:26 | 26.06691 | -80.15454 | 16 ft | 15 kts | 269° |
| 2026-05-04 01:27 | 26.06689 | -80.15574 | 16 ft | 16 kts | 273° |
| 2026-05-04 01:27 | 26.06696 | -80.15701 | 16 ft | 17 kts | 273° |
| 2026-05-04 01:27 | 26.06688 | -80.15798 | 16 ft | 4 kts | 236° |
| 2026-05-04 01:27 | 26.06687 | -80.15799 | 16 ft | 0 kts | 235° |
| 2026-05-04 01:28 | 26.06686 | -80.15801 | 16 ft | 0 kts | 232° |
| 2026-05-04 01:29 | 26.06685 | -80.15802 | 18 ft | 1 kts | 231° |
| 2026-05-04 01:29 | 26.06636 | -80.15821 | 17 ft | 14 kts | 181° |
| 2026-05-04 01:29 | 26.06590 | -80.15765 | 19 ft | 10 kts | 100° |
| 2026-05-04 01:29 | 26.06589 | -80.15751 | 19 ft | 0 kts | 91° |
| 2026-05-04 01:31 | 26.06589 | -80.15750 | 19 ft | 1 kts | 91° |
| 2026-05-04 01:31 | 26.06589 | -80.15569 | 23 ft | 58 kts | 90° |
| 2026-05-04 01:31 | 26.06585 | -80.14857 | 27 ft | 123 kts | 90° |
| 2026-05-04 01:32 | 26.06586 | -80.13807 | 85 ft | 165 kts | 89° |
| 2026-05-04 01:32 | 26.06609 | -80.12510 | 657 ft | 167 kts | 87° |
| 2026-05-04 01:32 | 26.06642 | -80.11633 | 1007 ft | 170 kts | 84° |
| 2026-05-04 01:32 | 26.06945 | -80.10379 | 1433 ft | 174 kts | 62° |
| 2026-05-04 01:33 | 26.07656 | -80.09203 | 1548 ft | 193 kts | 55° |
| 2026-05-04 01:33 | 26.08421 | -80.07934 | 1674 ft | 207 kts | 53° |
| 2026-05-04 01:33 | 26.09580 | -80.06851 | 1710 ft | 228 kts | 24° |
| 2026-05-04 01:33 | 26.11156 | -80.06238 | 1787 ft | 250 kts | 18° |
| 2026-05-04 01:34 | 26.12847 | -80.05594 | 2040 ft | 262 kts | 19° |
| 2026-05-04 01:34 | 26.14555 | -80.04943 | 2530 ft | 261 kts | 15° |
| 2026-05-04 01:34 | 26.16360 | -80.04869 | 2935 ft | 263 kts | 345° |
| 2026-05-04 01:34 | 26.18096 | -80.05562 | 3329 ft | 267 kts | 338° |
| 2026-05-04 01:35 | 26.19839 | -80.06280 | 3781 ft | 267 kts | 339° |
| 2026-05-04 01:35 | 26.21570 | -80.07030 | 4279 ft | 265 kts | 330° |
| 2026-05-04 01:35 | 26.22938 | -80.08359 | 4623 ft | 265 kts | 299° |
| 2026-05-04 01:35 | 26.23567 | -80.10277 | 5004 ft | 266 kts | 283° |
| 2026-05-04 01:36 | 26.24111 | -80.12246 | 5461 ft | 266 kts | 288° |
| 2026-05-04 01:36 | 26.24802 | -80.14161 | 5869 ft | 268 kts | 297° |
| 2026-05-04 01:36 | 26.25949 | -80.15809 | 6297 ft | 272 kts | 314° |
| 2026-05-04 01:36 | 26.27492 | -80.17042 | 6678 ft | 277 kts | 329° |
| 2026-05-04 01:37 | 26.29224 | -80.17995 | 7055 ft | 278 kts | 330° |
| 2026-05-04 01:37 | 26.30953 | -80.18962 | 7443 ft | 279 kts | 329° |
| 2026-05-04 01:37 | 26.32688 | -80.19943 | 7818 ft | 280 kts | 329° |
| 2026-05-04 01:37 | 26.34431 | -80.20930 | 8193 ft | 281 kts | 329° |
| 2026-05-04 01:38 | 26.36183 | -80.21917 | 8562 ft | 283 kts | 331° |
| 2026-05-04 01:38 | 26.38051 | -80.22673 | 8913 ft | 289 kts | 342° |
| 2026-05-04 01:38 | 26.40048 | -80.23033 | 9258 ft | 294 kts | 351° |
| 2026-05-04 01:38 | 26.42092 | -80.23230 | 9599 ft | 296 kts | 351° |
| 2026-05-04 01:39 | 26.44148 | -80.23435 | 9938 ft | 297 kts | 351° |
| 2026-05-04 01:39 | 26.46223 | -80.23646 | 10148 ft | 303 kts | 350° |
| 2026-05-04 01:39 | 26.48374 | -80.23869 | 10268 ft | 320 kts | 350° |
| 2026-05-04 01:39 | 26.50673 | -80.24117 | 10402 ft | 343 kts | 351° |
| 2026-05-04 01:40 | 26.53119 | -80.24381 | 10526 ft | 363 kts | 351° |
| 2026-05-04 01:40 | 26.55692 | -80.24651 | 10781 ft | 377 kts | 351° |
| 2026-05-04 01:40 | 26.58318 | -80.24965 | 11317 ft | 381 kts | 349° |
| 2026-05-04 01:40 | 26.60963 | -80.25366 | 11909 ft | 384 kts | 347° |
| 2026-05-04 01:41 | 26.63616 | -80.25821 | 12498 ft | 387 kts | 347° |
| 2026-05-04 01:41 | 26.66287 | -80.26301 | 13097 ft | 391 kts | 346° |
| 2026-05-04 01:41 | 26.68982 | -80.26788 | 13697 ft | 394 kts | 346° |
| 2026-05-04 01:41 | 26.71615 | -80.27492 | 14225 ft | 392 kts | 336° |
| 2026-05-04 01:42 | 26.74178 | -80.28564 | 14752 ft | 394 kts | 334° |
| 2026-05-04 01:42 | 26.76756 | -80.29650 | 15278 ft | 398 kts | 334° |
| 2026-05-04 01:42 | 26.79393 | -80.30753 | 15813 ft | 402 kts | 334° |
| 2026-05-04 01:42 | 26.82023 | -80.31850 | 16339 ft | 405 kts | 334° |
| 2026-05-04 01:43 | 26.84680 | -80.32956 | 16868 ft | 409 kts | 333° |
| 2026-05-04 01:43 | 26.87329 | -80.34058 | 17388 ft | 412 kts | 333° |
| 2026-05-04 01:43 | 26.90027 | -80.35185 | 17898 ft | 416 kts | 333° |
| 2026-05-04 01:43 | 26.92753 | -80.36325 | 18385 ft | 419 kts | 333° |
| 2026-05-04 01:44 | 26.95501 | -80.37473 | 18796 ft | 423 kts | 333° |
| 2026-05-04 01:44 | 26.98273 | -80.38609 | 19215 ft | 426 kts | 333° |
| 2026-05-04 01:44 | 27.01074 | -80.39739 | 19627 ft | 429 kts | 333° |
| 2026-05-04 01:44 | 27.03893 | -80.40868 | 20047 ft | 432 kts | 333° |
| 2026-05-04 01:45 | 27.06721 | -80.42001 | 20432 ft | 435 kts | 333° |
| 2026-05-04 01:45 | 27.09593 | -80.43155 | 20826 ft | 437 kts | 332° |
| 2026-05-04 01:45 | 27.15271 | -80.45581 | 21579 ft | 441 kts | 330° |
| 2026-05-04 01:46 | 27.18132 | -80.46860 | 21953 ft | 443 kts | 330° |
| 2026-05-04 01:46 | 27.21000 | -80.48155 | 22321 ft | 446 kts | 330° |
| 2026-05-04 01:46 | 27.23885 | -80.49454 | 22678 ft | 448 kts | 330° |
| 2026-05-04 01:46 | 27.26803 | -80.50761 | 23044 ft | 451 kts | 330° |
| 2026-05-04 01:47 | 27.29736 | -80.52066 | 23408 ft | 454 kts | 330° |
| 2026-05-04 01:47 | 27.32687 | -80.53373 | 23741 ft | 457 kts | 330° |
| 2026-05-04 01:47 | 27.35655 | -80.54685 | 24045 ft | 459 kts | 330° |
| 2026-05-04 01:47 | 27.38604 | -80.55964 | 24366 ft | 462 kts | 330° |
| 2026-05-04 01:48 | 27.41634 | -80.57204 | 24697 ft | 465 kts | 332° |
| 2026-05-04 01:48 | 27.44697 | -80.58404 | 25020 ft | 467 kts | 332° |
| 2026-05-04 01:48 | 27.47779 | -80.59588 | 25340 ft | 469 kts | 332° |
| 2026-05-04 01:48 | 27.50870 | -80.60774 | 25670 ft | 470 kts | 332° |
| 2026-05-04 01:49 | 27.53964 | -80.61974 | 25985 ft | 471 kts | 332° |
| 2026-05-04 01:49 | 27.57067 | -80.63196 | 26328 ft | 473 kts | 332° |
| 2026-05-04 01:49 | 27.60173 | -80.64434 | 26656 ft | 474 kts | 331° |
| 2026-05-04 01:49 | 27.63286 | -80.65686 | 26991 ft | 475 kts | 331° |
| 2026-05-04 01:50 | 27.66412 | -80.66946 | 27303 ft | 477 kts | 331° |
| 2026-05-04 01:50 | 27.69507 | -80.68190 | 27604 ft | 478 kts | 331° |
| 2026-05-04 01:50 | 27.72638 | -80.69441 | 28030 ft | 476 kts | 331° |
| 2026-05-04 01:50 | 27.75759 | -80.70685 | 28470 ft | 474 kts | 331° |
| 2026-05-04 01:51 | 27.78860 | -80.71921 | 28908 ft | 472 kts | 331° |
| 2026-05-04 01:51 | 27.81956 | -80.73155 | 29356 ft | 470 kts | 331° |
| 2026-05-04 01:51 | 27.85035 | -80.74382 | 29807 ft | 468 kts | 331° |
| 2026-05-04 01:51 | 27.88103 | -80.75606 | 30230 ft | 466 kts | 330° |
| 2026-05-04 01:52 | 27.91160 | -80.76830 | 30578 ft | 465 kts | 330° |
| 2026-05-04 01:52 | 27.94209 | -80.78056 | 30888 ft | 465 kts | 330° |
| 2026-05-04 01:52 | 27.97263 | -80.79284 | 31181 ft | 465 kts | 330° |
| 2026-05-04 01:52 | 28.00313 | -80.80512 | 31479 ft | 465 kts | 329° |
| 2026-05-04 01:53 | 28.03370 | -80.81741 | 31760 ft | 466 kts | 329° |
| 2026-05-04 01:53 | 28.06425 | -80.82968 | 32061 ft | 466 kts | 329° |
| 2026-05-04 01:53 | 28.09449 | -80.84186 | 32346 ft | 466 kts | 329° |
| 2026-05-04 01:53 | 28.12506 | -80.85418 | 32625 ft | 466 kts | 328° |
| 2026-05-04 01:54 | 28.15573 | -80.86654 | 32907 ft | 466 kts | 328° |
| 2026-05-04 01:54 | 28.18637 | -80.87889 | 33181 ft | 467 kts | 328° |
| 2026-05-04 01:54 | 28.21696 | -80.89125 | 33457 ft | 467 kts | 328° |
| 2026-05-04 01:54 | 28.24757 | -80.90363 | 33727 ft | 467 kts | 328° |
| 2026-05-04 01:55 | 28.27816 | -80.91604 | 34018 ft | 467 kts | 327° |
| 2026-05-04 01:55 | 28.30877 | -80.92844 | 34265 ft | 467 kts | 327° |
| 2026-05-04 01:55 | 28.33942 | -80.94081 | 34518 ft | 467 kts | 327° |
| 2026-05-04 01:55 | 28.36999 | -80.95309 | 34783 ft | 466 kts | 327° |
| 2026-05-04 01:56 | 28.40056 | -80.96538 | 35020 ft | 465 kts | 327° |
| 2026-05-04 01:56 | 28.43106 | -80.97768 | 35096 ft | 465 kts | 327° |
| 2026-05-04 01:56 | 28.49153 | -81.00222 | 35104 ft | 464 kts | 327° |
| 2026-05-04 01:57 | 28.55233 | -81.02694 | 35100 ft | 463 kts | 326° |
| 2026-05-04 01:57 | 28.61304 | -81.05164 | 35108 ft | 463 kts | 326° |
| 2026-05-04 01:58 | 28.67373 | -81.07636 | 35117 ft | 463 kts | 326° |
| 2026-05-04 01:58 | 28.73444 | -81.10106 | 35138 ft | 463 kts | 326° |
| 2026-05-04 01:59 | 28.79515 | -81.12583 | 35151 ft | 463 kts | 326° |
| 2026-05-04 01:59 | 28.85578 | -81.15064 | 35154 ft | 463 kts | 326° |
| 2026-05-04 02:00 | 28.91652 | -81.17546 | 35154 ft | 463 kts | 327° |
| 2026-05-04 02:00 | 28.97729 | -81.20033 | 35172 ft | 463 kts | 327° |
| 2026-05-04 02:01 | 29.03752 | -81.22505 | 35176 ft | 463 kts | 327° |
| 2026-05-04 02:01 | 29.09827 | -81.24991 | 35178 ft | 463 kts | 327° |
| 2026-05-04 02:02 | 29.15884 | -81.27481 | 35175 ft | 462 kts | 327° |
| 2026-05-04 02:02 | 29.21933 | -81.29969 | 35160 ft | 461 kts | 327° |
| 2026-05-04 02:03 | 29.28110 | -81.32174 | 35160 ft | 478 kts | 338° |
| 2026-05-04 02:03 | 29.31475 | -81.32565 | 35167 ft | 491 kts | 345° |
| 2026-05-04 02:03 | 29.34897 | -81.32766 | 35173 ft | 492 kts | 345° |
| 2026-05-04 02:04 | 29.41688 | -81.33146 | 35177 ft | 492 kts | 345° |
| 2026-05-04 02:04 | 29.48515 | -81.33532 | 35191 ft | 491 kts | 345° |
| 2026-05-04 02:05 | 29.55334 | -81.33932 | 35183 ft | 490 kts | 345° |
| 2026-05-04 02:05 | 29.62131 | -81.34340 | 35181 ft | 489 kts | 346° |
| 2026-05-04 02:06 | 29.68923 | -81.34750 | 35180 ft | 488 kts | 346° |
| 2026-05-04 02:06 | 29.73760 | -81.35061 | 35176 ft | 479 kts | 340° |
| 2026-05-04 02:07 | 29.80410 | -81.35824 | 35171 ft | 485 kts | 346° |
| 2026-05-04 02:07 | 29.87198 | -81.35995 | 35182 ft | 489 kts | 348° |
| 2026-05-04 02:08 | 29.93951 | -81.36176 | 35183 ft | 487 kts | 347° |
| 2026-05-04 02:08 | 30.00714 | -81.36557 | 35189 ft | 485 kts | 346° |
| 2026-05-04 02:09 | 30.07445 | -81.37015 | 35189 ft | 485 kts | 346° |
| 2026-05-04 02:09 | 30.14181 | -81.37452 | 35188 ft | 485 kts | 346° |
| 2026-05-04 02:10 | 30.20926 | -81.37850 | 35176 ft | 485 kts | 346° |
| 2026-05-04 02:10 | 30.23917 | -81.38004 | 35181 ft | 485 kts | 347° |
| 2026-05-04 02:11 | 30.30618 | -81.38387 | 35182 ft | 485 kts | 346° |
| 2026-05-04 02:11 | 30.37346 | -81.38814 | 35186 ft | 484 kts | 346° |
| 2026-05-04 02:12 | 30.44069 | -81.39239 | 35185 ft | 484 kts | 347° |
| 2026-05-04 02:12 | 30.50804 | -81.39627 | 35185 ft | 484 kts | 347° |
| 2026-05-04 02:13 | 30.57537 | -81.39969 | 35202 ft | 484 kts | 347° |
| 2026-05-04 02:13 | 30.64271 | -81.40307 | 35198 ft | 484 kts | 347° |
| 2026-05-04 02:14 | 30.71007 | -81.40654 | 35198 ft | 484 kts | 347° |
| 2026-05-04 02:14 | 30.77728 | -81.41010 | 35189 ft | 483 kts | 347° |
| 2026-05-04 02:15 | 30.84443 | -81.41370 | 35182 ft | 483 kts | 347° |
| 2026-05-04 02:15 | 30.91170 | -81.41741 | 35170 ft | 483 kts | 347° |
| 2026-05-04 02:16 | 30.97888 | -81.42106 | 35175 ft | 483 kts | 347° |
| 2026-05-04 02:16 | 31.04553 | -81.42458 | 35178 ft | 483 kts | 348° |
| 2026-05-04 02:17 | 31.11273 | -81.42812 | 35178 ft | 483 kts | 348° |
| 2026-05-04 02:17 | 31.17986 | -81.43172 | 35179 ft | 483 kts | 348° |
| 2026-05-04 02:18 | 31.24771 | -81.42924 | 35195 ft | 500 kts | 2° |
| 2026-05-04 02:18 | 31.28166 | -81.41878 | 35196 ft | 511 kts | 13° |
| 2026-05-04 02:18 | 31.30354 | -81.40817 | 35193 ft | 516 kts | 19° |
| 2026-05-04 02:19 | 31.36866 | -81.37255 | 35186 ft | 517 kts | 18° |
| 2026-05-04 02:19 | 31.43393 | -81.33710 | 35181 ft | 517 kts | 18° |
| 2026-05-04 02:20 | 31.49919 | -81.30176 | 35174 ft | 517 kts | 18° |
| 2026-05-04 02:20 | 31.56452 | -81.26630 | 35157 ft | 517 kts | 18° |
| 2026-05-04 02:21 | 31.62980 | -81.23074 | 35160 ft | 517 kts | 19° |
| 2026-05-04 02:21 | 31.69509 | -81.19503 | 35150 ft | 517 kts | 19° |
| 2026-05-04 02:22 | 31.75988 | -81.15954 | 35145 ft | 517 kts | 19° |
| 2026-05-04 02:22 | 31.82512 | -81.12379 | 35140 ft | 517 kts | 19° |
| 2026-05-04 02:23 | 31.89050 | -81.08792 | 35138 ft | 517 kts | 19° |
| 2026-05-04 02:23 | 31.95569 | -81.05220 | 35142 ft | 517 kts | 19° |
| 2026-05-04 02:24 | 32.02102 | -81.01626 | 35146 ft | 517 kts | 19° |
| 2026-05-04 02:24 | 32.08609 | -80.97989 | 35145 ft | 518 kts | 19° |
| 2026-05-04 02:25 | 32.15076 | -80.94346 | 35164 ft | 518 kts | 19° |
| 2026-05-04 02:25 | 32.21577 | -80.90686 | 35183 ft | 518 kts | 19° |
| 2026-05-04 02:26 | 32.28090 | -80.87036 | 35181 ft | 518 kts | 19° |
| 2026-05-04 02:26 | 32.34597 | -80.83386 | 35184 ft | 518 kts | 19° |
| 2026-05-04 02:27 | 32.41109 | -80.79721 | 35182 ft | 518 kts | 19° |
| 2026-05-04 02:27 | 32.47615 | -80.76046 | 35182 ft | 518 kts | 20° |
| 2026-05-04 02:28 | 32.54045 | -80.72402 | 35183 ft | 518 kts | 20° |
| 2026-05-04 02:29 | 32.58107 | -80.70093 | 35181 ft | 518 kts | 20° |
| 2026-05-04 02:29 | 32.59874 | -80.69015 | 35426 ft | 513 kts | 22° |
| 2026-05-04 02:30 | 32.63002 | -80.67054 | 35244 ft | 516 kts | 21° |
| 2026-05-04 02:30 | 32.66220 | -80.65165 | 35123 ft | 516 kts | 22° |
| 2026-05-04 02:30 | 32.72174 | -80.60260 | 35162 ft | 529 kts | 42° |
| 2026-05-04 02:31 | 32.74580 | -80.56944 | 35170 ft | 533 kts | 54° |
| 2026-05-04 02:31 | 32.76643 | -80.53287 | 35158 ft | 534 kts | 55° |
| 2026-05-04 02:31 | 32.80797 | -80.45975 | 35158 ft | 534 kts | 54° |
| 2026-05-04 02:32 | 32.85036 | -80.38703 | 35159 ft | 534 kts | 53° |
| 2026-05-04 02:32 | 32.89281 | -80.31448 | 35149 ft | 534 kts | 54° |
| 2026-05-04 02:33 | 32.93511 | -80.24158 | 35158 ft | 535 kts | 54° |
| 2026-05-04 02:33 | 32.97712 | -80.16858 | 35161 ft | 535 kts | 54° |
| 2026-05-04 02:34 | 33.01918 | -80.09528 | 34520 ft | 539 kts | 54° |
| 2026-05-04 02:34 | 33.04046 | -80.05825 | 33656 ft | 542 kts | 54° |
| 2026-05-04 02:34 | 33.06153 | -80.02159 | 32828 ft | 543 kts | 54° |
| 2026-05-04 02:35 | 33.08317 | -79.98390 | 32023 ft | 543 kts | 54° |
| 2026-05-04 02:35 | 33.10419 | -79.94724 | 31223 ft | 540 kts | 54° |
| 2026-05-04 02:35 | 33.12531 | -79.91037 | 30008 ft | 539 kts | 54° |
| 2026-05-04 02:35 | 33.14646 | -79.87341 | 28560 ft | 538 kts | 54° |
| 2026-05-04 02:36 | 33.16752 | -79.83656 | 27100 ft | 536 kts | 54° |
| 2026-05-04 02:36 | 33.18847 | -79.79982 | 25621 ft | 534 kts | 54° |
| 2026-05-04 02:36 | 33.20933 | -79.76317 | 24115 ft | 532 kts | 54° |
| 2026-05-04 02:36 | 33.23004 | -79.72679 | 22929 ft | 522 kts | 54° |
| 2026-05-04 02:37 | 33.25010 | -79.69151 | 21883 ft | 509 kts | 54° |
| 2026-05-04 02:37 | 33.26976 | -79.65687 | 20760 ft | 498 kts | 54° |
| 2026-05-04 02:37 | 33.28903 | -79.62286 | 19664 ft | 488 kts | 54° |
| 2026-05-04 02:37 | 33.30788 | -79.58959 | 18616 ft | 478 kts | 54° |
| 2026-05-04 02:38 | 33.32639 | -79.55698 | 17467 ft | 469 kts | 54° |
| 2026-05-04 02:38 | 33.34450 | -79.52506 | 16346 ft | 458 kts | 54° |
| 2026-05-04 02:38 | 33.36222 | -79.49378 | 15275 ft | 448 kts | 54° |
| 2026-05-04 02:38 | 33.37941 | -79.46341 | 14061 ft | 434 kts | 54° |
| 2026-05-04 02:39 | 33.39596 | -79.43415 | 13163 ft | 411 kts | 54° |
| 2026-05-04 02:39 | 33.41113 | -79.40727 | 12691 ft | 383 kts | 54° |
| 2026-05-04 02:39 | 33.42621 | -79.38063 | 12087 ft | 388 kts | 54° |
| 2026-05-04 02:39 | 33.44133 | -79.35392 | 11487 ft | 384 kts | 54° |
| 2026-05-04 02:40 | 33.45578 | -79.32827 | 11067 ft | 356 kts | 54° |
| 2026-05-04 02:40 | 33.46898 | -79.30471 | 10844 ft | 326 kts | 54° |
| 2026-05-04 02:40 | 33.48116 | -79.28296 | 10479 ft | 306 kts | 53° |
| 2026-05-04 02:40 | 33.49275 | -79.26231 | 10221 ft | 296 kts | 53° |
| 2026-05-04 02:41 | 33.50431 | -79.24180 | 10005 ft | 295 kts | 53° |
| 2026-05-04 02:41 | 33.51578 | -79.22142 | 9886 ft | 295 kts | 53° |
| 2026-05-04 02:41 | 33.52722 | -79.20104 | 9752 ft | 294 kts | 53° |
| 2026-05-04 02:41 | 33.53862 | -79.18072 | 9615 ft | 293 kts | 53° |
| 2026-05-04 02:42 | 33.55002 | -79.16039 | 9494 ft | 293 kts | 53° |
| 2026-05-04 02:42 | 33.56134 | -79.14021 | 9365 ft | 292 kts | 53° |
| 2026-05-04 02:42 | 33.57266 | -79.12003 | 9233 ft | 291 kts | 53° |
| 2026-05-04 02:42 | 33.58398 | -79.09994 | 9114 ft | 290 kts | 51° |
| 2026-05-04 02:43 | 33.59833 | -79.08409 | 8975 ft | 283 kts | 25° |
| 2026-05-04 02:43 | 33.61680 | -79.07765 | 8831 ft | 276 kts | 360° |
| 2026-05-04 02:43 | 33.63583 | -79.07891 | 8460 ft | 273 kts | 352° |
| 2026-05-04 02:43 | 33.65466 | -79.08159 | 8097 ft | 272 kts | 351° |
| 2026-05-04 02:44 | 33.67345 | -79.08445 | 7745 ft | 271 kts | 351° |
| 2026-05-04 02:44 | 33.69207 | -79.08731 | 7405 ft | 269 kts | 351° |
| 2026-05-04 02:44 | 33.71058 | -79.09018 | 7070 ft | 268 kts | 351° |
| 2026-05-04 02:44 | 33.72892 | -79.09305 | 6654 ft | 265 kts | 351° |
| 2026-05-04 02:45 | 33.74719 | -79.09591 | 6102 ft | 264 kts | 351° |
| 2026-05-04 02:45 | 33.76540 | -79.09868 | 5542 ft | 264 kts | 351° |
| 2026-05-04 02:45 | 33.78364 | -79.10136 | 5020 ft | 263 kts | 351° |
| 2026-05-04 02:45 | 33.80135 | -79.10384 | 4803 ft | 250 kts | 351° |
| 2026-05-04 02:46 | 33.81848 | -79.10342 | 4417 ft | 248 kts | 12° |
| 2026-05-04 02:46 | 33.83387 | -79.09447 | 4175 ft | 247 kts | 39° |
| 2026-05-04 02:46 | 33.84444 | -79.07844 | 4050 ft | 251 kts | 65° |
| 2026-05-04 02:46 | 33.84988 | -79.05839 | 3933 ft | 253 kts | 74° |
| 2026-05-04 02:47 | 33.85475 | -79.03808 | 3801 ft | 252 kts | 73° |
| 2026-05-04 02:47 | 33.85959 | -79.01783 | 3678 ft | 252 kts | 74° |
| 2026-05-04 02:47 | 33.86116 | -78.99710 | 3540 ft | 249 kts | 103° |
| 2026-05-04 02:47 | 33.85360 | -78.97874 | 3340 ft | 246 kts | 136° |
| 2026-05-04 02:48 | 33.83942 | -78.96824 | 3023 ft | 239 kts | 167° |
| 2026-05-04 02:48 | 33.82324 | -78.96403 | 2692 ft | 237 kts | 171° |
| 2026-05-04 02:48 | 33.80716 | -78.96008 | 2387 ft | 232 kts | 171° |
| 2026-05-04 02:48 | 33.79183 | -78.95627 | 2049 ft | 217 kts | 170° |
| 2026-05-04 02:49 | 33.77782 | -78.95277 | 2001 ft | 199 kts | 171° |
| 2026-05-04 02:49 | 33.76461 | -78.94950 | 2016 ft | 182 kts | 171° |
| 2026-05-04 02:49 | 33.75285 | -78.94654 | 1764 ft | 165 kts | 171° |
| 2026-05-04 02:49 | 33.74196 | -78.94381 | 1339 ft | 153 kts | 171° |
| 2026-05-04 02:50 | 33.73197 | -78.94129 | 960 ft | 141 kts | 171° |
| 2026-05-04 02:50 | 33.72272 | -78.93896 | 699 ft | 133 kts | 170° |
| 2026-05-04 02:50 | 33.71372 | -78.93669 | 464 ft | 131 kts | 171° |
| 2026-05-04 02:50 | 33.70487 | -78.93443 | 314 ft | 132 kts | 170° |
| 2026-05-04 02:51 | 33.69598 | -78.93227 | 161 ft | 130 kts | 171° |
| 2026-05-04 02:51 | 33.68733 | -78.93026 | 35 ft | 119 kts | 166° |
| 2026-05-04 02:51 | 33.68139 | -78.92874 | 31 ft | 46 kts | 168° |
| 2026-05-04 02:51 | 33.68019 | -78.92844 | 33 ft | 11 kts | 168° |
| 2026-05-04 02:52 | 33.67935 | -78.92822 | 33 ft | 16 kts | 167° |
| 2026-05-04 02:52 | 33.67795 | -78.92785 | 32 ft | 25 kts | 167° |
| 2026-05-04 02:52 | 33.67607 | -78.92709 | 32 ft | 30 kts | 144° |
| 2026-05-04 02:52 | 33.67469 | -78.92541 | 32 ft | 23 kts | 100° |
| 2026-05-04 02:53 | 33.67531 | -78.92501 | 32 ft | 9 kts | 335° |
| 2026-05-04 02:53 | 33.67629 | -78.92542 | 32 ft | 20 kts | 347° |
| 2026-05-04 02:53 | 33.67773 | -78.92579 | 32 ft | 22 kts | 348° |
| 2026-05-04 02:53 | 33.67927 | -78.92616 | 32 ft | 23 kts | 348° |
| 2026-05-04 02:54 | 33.68076 | -78.92648 | 32 ft | 16 kts | 353° |
| 2026-05-04 02:54 | 33.68099 | -78.92584 | 32 ft | 9 kts | 89° |
| 2026-05-04 02:54 | 33.68102 | -78.92529 | 32 ft | 0 kts | 84° |
| 2026-05-04 02:54 | 33.68103 | -78.92516 | 32 ft | 8 kts | 90° |
| 2026-05-04 02:55 | 33.68060 | -78.92459 | 32 ft | 0 kts | 146° |